createdAt,value
2024-05-09T00:00:58.692Z,80.88
2024-05-09T00:01:58.664Z,80.78
2024-05-09T00:02:58.741Z,80.16
2024-05-09T00:03:58.710Z,80.37
2024-05-09T00:04:58.745Z,79.66
2024-05-09T00:05:58.840Z,79.66
2024-05-09T00:06:58.754Z,80.07
2024-05-09T00:07:58.772Z,80.07
2024-05-09T00:08:58.762Z,79.32
2024-05-09T00:09:58.783Z,79.00
2024-05-09T00:10:58.884Z,79.32
2024-05-09T00:11:58.958Z,79.32
2024-05-09T00:12:58.845Z,78.80
2024-05-09T00:13:58.911Z,79.11
2024-05-09T00:14:58.890Z,79.21
2024-05-09T00:15:58.906Z,79.04
2024-05-09T00:16:58.963Z,79.25
2024-05-09T00:17:59.092Z,80.47
2024-05-09T00:18:59.028Z,79.35
2024-05-09T00:19:59.006Z,79.14
2024-05-09T00:20:59.076Z,80.37
2024-05-09T00:21:59.024Z,79.25
2024-05-09T00:22:59.064Z,79.75
2024-05-09T00:23:59.061Z,80.68
2024-05-09T00:24:59.072Z,80.43
2024-05-09T00:25:59.182Z,79.82
2024-05-09T00:26:59.111Z,78.94
2024-05-09T00:27:59.157Z,78.94
2024-05-09T00:28:59.168Z,79.96
2024-05-09T00:29:59.175Z,79.86
2024-05-09T00:30:59.199Z,80.27
2024-05-09T00:31:59.277Z,80.47
2024-05-09T00:32:59.315Z,80.57
2024-05-09T00:33:59.422Z,80.88
2024-05-09T00:34:59.278Z,80.57
2024-05-09T00:35:59.289Z,79.66
2024-05-09T00:36:59.317Z,80.16
2024-05-09T00:37:59.467Z,80.37
2024-05-09T00:38:59.348Z,79.66
2024-05-09T00:39:59.374Z,79.86
2024-05-09T00:40:59.412Z,80.88
2024-05-09T00:41:59.411Z,81.39
2024-05-09T00:42:59.428Z,81.09
2024-05-09T00:43:59.468Z,80.07
2024-05-09T00:44:59.456Z,80.57
2024-05-09T00:45:59.479Z,81.39
2024-05-09T00:46:59.590Z,80.37
2024-05-09T00:47:59.700Z,80.37
2024-05-09T00:48:59.741Z,80.51
2024-05-09T00:49:59.600Z,81.29
2024-05-09T00:50:59.588Z,81.70
2024-05-09T00:51:59.630Z,81.39
2024-05-09T00:52:59.685Z,81.09
2024-05-09T00:53:59.629Z,80.37
2024-05-09T00:54:59.655Z,80.68
2024-05-09T00:55:59.803Z,81.39
2024-05-09T00:56:59.697Z,80.57
2024-05-09T00:57:59.720Z,80.47
2024-05-09T00:58:59.796Z,79.80
2024-05-09T00:59:59.745Z,80.41
2024-05-09T01:00:59.802Z,81.43
2024-05-09T01:01:59.882Z,81.63
2024-05-09T01:02:59.891Z,82.35
2024-05-09T01:03:59.948Z,81.94
2024-05-09T01:04:59.934Z,82.96
2024-05-09T01:05:59.911Z,82.65
2024-05-09T01:06:59.876Z,82.35
2024-05-09T01:07:59.907Z,82.14
2024-05-09T01:08:59.923Z,82.45
2024-05-09T01:09:59.937Z,81.84
2024-05-09T01:11:00.026Z,82.24
2024-05-09T01:12:00.122Z,81.94
2024-05-09T01:13:00.008Z,82.24
2024-05-09T01:14:00.132Z,81.73
2024-05-09T01:15:00.027Z,82.35
2024-05-09T01:16:00.050Z,81.39
2024-05-09T01:17:00.113Z,81.49
2024-05-09T01:18:00.238Z,82.65
2024-05-09T01:19:00.200Z,82.04
2024-05-09T01:20:00.235Z,82.04
2024-05-09T01:21:00.157Z,81.94
2024-05-09T01:22:00.200Z,81.94
2024-05-09T01:23:00.205Z,82.65
2024-05-09T01:24:00.221Z,83.10
2024-05-09T01:25:00.232Z,81.98
2024-05-09T01:26:00.348Z,82.45
2024-05-09T01:27:00.271Z,82.18
2024-05-09T01:28:00.314Z,82.59
2024-05-09T01:29:00.325Z,82.79
2024-05-09T01:30:00.391Z,82.86
2024-05-09T01:31:00.338Z,82.55
2024-05-09T01:32:00.448Z,82.65
2024-05-09T01:33:00.466Z,83.16
2024-05-09T01:34:00.470Z,83.47
2024-05-09T01:35:00.473Z,82.86
2024-05-09T01:36:00.438Z,82.65
2024-05-09T01:37:00.470Z,82.55
2024-05-09T01:38:00.568Z,82.89
2024-05-09T01:39:00.478Z,82.45
2024-05-09T01:40:00.530Z,82.24
2024-05-09T01:41:00.557Z,82.24
2024-05-09T01:42:00.559Z,82.79
2024-05-09T01:43:00.610Z,83.20
2024-05-09T01:44:00.645Z,83.51
2024-05-09T01:45:00.600Z,83.61
2024-05-09T01:46:00.627Z,83.61
2024-05-09T01:47:00.723Z,83.30
2024-05-09T01:48:01.134Z,84.33
2024-05-09T01:49:00.822Z,83.51
2024-05-09T01:50:00.799Z,84.01
2024-05-09T01:51:00.852Z,84.77
2024-05-09T01:52:00.727Z,84.57
2024-05-09T01:53:00.910Z,85.04
2024-05-09T01:54:00.771Z,84.42
2024-05-09T01:55:04.533Z,83.20
2024-05-09T01:56:00.888Z,83.20
2024-05-09T01:57:00.855Z,83.40
2024-05-09T01:58:00.907Z,83.00
2024-05-09T01:59:00.885Z,83.40
2024-05-09T02:00:00.883Z,83.30
2024-05-09T02:01:00.940Z,83.65
2024-05-09T02:02:01.184Z,83.51
2024-05-09T02:03:01.192Z,83.40
2024-05-09T02:04:01.133Z,83.81
2024-05-09T02:05:01.076Z,83.81
2024-05-09T02:06:01.028Z,83.61
2024-05-09T02:07:01.022Z,83.51
2024-05-09T02:08:01.085Z,83.51
2024-05-09T02:09:01.059Z,82.89
2024-05-09T02:10:01.096Z,83.20
2024-05-09T02:11:01.179Z,83.10
2024-05-09T02:12:01.330Z,84.33
2024-05-09T02:13:01.232Z,85.04
2024-05-09T02:14:01.299Z,84.42
2024-05-09T02:15:01.161Z,84.63
2024-05-09T02:16:01.178Z,84.74
2024-05-09T02:17:01.305Z,85.08
2024-05-09T02:18:01.384Z,84.98
2024-05-09T02:19:01.394Z,85.38
2024-05-09T02:20:01.343Z,85.38
2024-05-09T02:21:01.494Z,85.69
2024-05-09T02:22:01.295Z,85.28
2024-05-09T02:23:01.328Z,85.12
2024-05-09T02:24:01.344Z,85.63
2024-05-09T02:25:01.354Z,85.94
2024-05-09T02:26:01.452Z,84.85
2024-05-09T02:27:01.389Z,85.20
2024-05-09T02:28:01.440Z,85.16
2024-05-09T02:29:01.435Z,85.57
2024-05-09T02:30:01.447Z,85.88
2024-05-09T02:31:01.480Z,85.71
2024-05-09T02:32:01.591Z,86.02
2024-05-09T02:33:01.704Z,85.20
2024-05-09T02:34:01.904Z,86.77
2024-05-09T02:35:01.638Z,87.32
2024-05-09T02:36:01.550Z,88.76
2024-05-09T02:37:01.574Z,89.12
2024-05-09T02:38:01.730Z,89.58
2024-05-09T02:39:01.673Z,89.64
2024-05-09T02:40:01.633Z,88.92
2024-05-09T02:41:01.678Z,88.62
2024-05-09T02:42:01.665Z,89.68
2024-05-09T02:43:01.680Z,89.68
2024-05-09T02:44:01.736Z,89.51
2024-05-09T02:45:01.757Z,89.11
2024-05-09T02:46:01.742Z,89.47
2024-05-09T02:47:01.785Z,89.51
2024-05-09T02:48:02.357Z,90.19
2024-05-09T02:49:01.858Z,90.39
2024-05-09T02:50:01.900Z,89.78
2024-05-09T02:51:01.855Z,90.09
2024-05-09T02:52:01.852Z,90.13
2024-05-09T02:53:01.905Z,90.58
2024-05-09T02:54:01.898Z,91.55
2024-05-09T02:55:01.910Z,92.51
2024-05-09T02:56:01.951Z,93.02
2024-05-09T02:57:01.937Z,93.90
2024-05-09T02:58:01.964Z,93.54
2024-05-09T02:59:02.018Z,92.78
2024-05-09T03:00:02.031Z,92.88
2024-05-09T03:01:02.108Z,93.39
2024-05-09T03:02:02.099Z,93.04
2024-05-09T03:03:02.282Z,93.86
2024-05-09T03:04:02.232Z,92.18
2024-05-09T03:05:02.151Z,91.77
2024-05-09T03:06:02.112Z,91.26
2024-05-09T03:07:02.126Z,90.84
2024-05-09T03:08:02.204Z,89.92
2024-05-09T03:09:02.166Z,89.92
2024-05-09T03:10:02.229Z,89.72
2024-05-09T03:11:02.255Z,89.83
2024-05-09T03:12:02.465Z,89.97
2024-05-09T03:13:02.227Z,90.83
2024-05-09T03:14:02.293Z,91.96
2024-05-09T03:15:02.263Z,92.51
2024-05-09T03:16:02.291Z,92.61
2024-05-09T03:17:02.355Z,93.68
2024-05-09T03:18:02.582Z,94.04
2024-05-09T03:19:02.500Z,95.01
2024-05-09T03:20:03.084Z,95.83
2024-05-09T03:21:02.492Z,96.90
2024-05-09T03:22:02.386Z,97.37
2024-05-09T03:23:02.697Z,97.99
2024-05-09T03:24:02.443Z,97.37
2024-05-09T03:25:02.451Z,96.75
2024-05-09T03:26:02.535Z,97.06
2024-05-09T03:27:02.495Z,97.06
2024-05-09T03:28:02.508Z,96.80
2024-05-09T03:29:02.556Z,97.47
2024-05-09T03:30:03.835Z,97.67
2024-05-09T03:31:02.548Z,96.95
2024-05-09T03:32:02.612Z,96.65
2024-05-09T03:33:02.789Z,96.91
2024-05-09T03:34:02.856Z,96.14
2024-05-09T03:35:02.694Z,95.62
2024-05-09T03:36:02.629Z,97.16
2024-05-09T03:37:02.656Z,96.75
2024-05-09T03:38:02.664Z,97.06
2024-05-09T03:39:02.702Z,96.85
2024-05-09T03:40:02.870Z,97.31
2024-05-09T03:41:02.768Z,97.00
2024-05-09T03:42:02.747Z,97.10
2024-05-09T03:43:02.756Z,97.31
2024-05-09T03:44:02.802Z,98.96
2024-05-09T03:45:02.794Z,98.33
2024-05-09T03:46:02.820Z,98.96
2024-05-09T03:47:02.886Z,98.39
2024-05-09T03:48:03.003Z,97.57
2024-05-09T03:49:02.950Z,97.41
2024-05-09T03:50:05.421Z,96.90
2024-05-09T03:51:02.914Z,97.00
2024-05-09T03:52:02.915Z,97.52
2024-05-09T03:53:02.989Z,98.19
2024-05-09T03:54:02.967Z,97.99
2024-05-09T03:55:02.971Z,98.19
2024-05-09T03:56:03.012Z,97.88
2024-05-09T03:57:03.003Z,96.81
2024-05-09T03:58:03.033Z,95.57
2024-05-09T03:59:03.089Z,94.70
2024-05-09T04:00:05.533Z,95.21
2024-05-09T04:01:03.100Z,95.06
2024-05-09T04:02:03.162Z,94.24
2024-05-09T04:03:03.372Z,95.27
2024-05-09T04:04:03.184Z,95.27
2024-05-09T04:05:03.252Z,95.43
2024-05-09T04:06:03.152Z,95.32
2024-05-09T04:07:03.192Z,95.02
2024-05-09T04:08:03.219Z,94.87
2024-05-09T04:09:03.219Z,94.26
2024-05-09T04:10:04.096Z,93.64
2024-05-09T04:11:03.338Z,93.33
2024-05-09T04:12:03.347Z,92.61
2024-05-09T04:13:03.897Z,92.46
2024-05-09T04:14:03.360Z,93.63
2024-05-09T04:15:03.310Z,94.59
2024-05-09T04:16:03.349Z,94.74
2024-05-09T04:17:03.414Z,96.28
2024-05-09T04:18:03.539Z,96.80
2024-05-09T04:19:03.569Z,97.15
2024-05-09T04:20:03.458Z,97.87
2024-05-09T04:21:03.546Z,98.69
2024-05-09T04:22:03.448Z,99.10
2024-05-09T04:23:03.509Z,99.21
2024-05-09T04:24:03.482Z,99.57
2024-05-09T04:25:03.497Z,99.47
2024-05-09T04:26:03.541Z,99.11
2024-05-09T04:27:03.523Z,98.80
2024-05-09T04:28:03.555Z,96.95
2024-05-09T04:29:03.608Z,96.85
2024-05-09T04:30:03.702Z,96.14
2024-05-09T04:31:03.600Z,96.44
2024-05-09T04:32:03.706Z,96.75
2024-05-09T04:33:03.739Z,96.55
2024-05-09T04:34:04.010Z,97.27
2024-05-09T04:35:03.752Z,96.80
2024-05-09T04:36:03.681Z,97.92
2024-05-09T04:37:03.695Z,98.85
2024-05-09T04:38:03.818Z,98.44
2024-05-09T04:39:03.734Z,98.38
2024-05-09T04:40:05.429Z,98.69
2024-05-09T04:41:03.805Z,98.65
2024-05-09T04:42:03.780Z,98.85
2024-05-09T04:43:03.827Z,99.47
2024-05-09T04:44:03.861Z,99.47
2024-05-09T04:45:03.854Z,99.47
2024-05-09T04:46:03.840Z,99.37
2024-05-09T04:47:03.915Z,99.57
2024-05-09T04:48:04.246Z,99.01
2024-05-09T04:49:04.063Z,98.39
2024-05-09T04:50:05.463Z,98.76
2024-05-09T04:51:04.059Z,98.19
2024-05-09T04:52:03.945Z,97.63
2024-05-09T04:53:04.089Z,97.38
2024-05-09T04:54:03.977Z,96.91
2024-05-09T04:55:04.019Z,96.81
2024-05-09T04:56:04.072Z,96.35
2024-05-09T04:57:04.042Z,96.09
2024-05-09T04:58:04.050Z,96.04
2024-05-09T04:59:04.105Z,96.04
2024-05-09T05:00:09.359Z,95.43
2024-05-09T05:01:04.125Z,94.65
2024-05-09T05:02:04.244Z,95.17
2024-05-09T05:03:04.323Z,97.12
2024-05-09T05:04:04.238Z,96.70
2024-05-09T05:05:04.287Z,96.50
2024-05-09T05:06:04.368Z,96.81
2024-05-09T05:07:04.221Z,96.91
2024-05-09T05:08:04.347Z,96.66
2024-05-09T05:09:04.247Z,96.81
2024-05-09T05:10:05.799Z,97.07
2024-05-09T05:11:04.378Z,96.87
2024-05-09T05:12:04.429Z,96.77
2024-05-09T05:13:04.318Z,96.97
2024-05-09T05:14:04.436Z,96.66
2024-05-09T05:15:04.343Z,97.69
2024-05-09T05:16:04.362Z,97.28
2024-05-09T05:17:04.423Z,97.28
2024-05-09T05:18:04.571Z,97.17
2024-05-09T05:19:07.142Z,97.03
2024-05-09T05:20:05.819Z,97.33
2024-05-09T05:21:04.495Z,96.51
2024-05-09T05:22:04.496Z,97.03
2024-05-09T05:23:04.606Z,96.88
2024-05-09T05:24:04.514Z,96.67
2024-05-09T05:25:04.535Z,96.98
2024-05-09T05:26:04.618Z,95.95
2024-05-09T05:27:04.555Z,95.44
2024-05-09T05:28:04.586Z,95.14
2024-05-09T05:29:04.613Z,94.99
2024-05-09T05:30:07.434Z,96.83
2024-05-09T05:31:04.624Z,96.32
2024-05-09T05:32:04.776Z,96.73
2024-05-09T05:33:04.720Z,96.83
2024-05-09T05:34:04.761Z,96.83
2024-05-09T05:35:04.746Z,96.73
2024-05-09T05:36:04.724Z,96.83
2024-05-09T05:37:04.731Z,95.81
2024-05-09T05:38:04.956Z,96.12
2024-05-09T05:39:04.778Z,96.73
2024-05-09T05:40:05.709Z,96.94
2024-05-09T05:41:04.830Z,96.53
2024-05-09T05:42:04.821Z,96.69
2024-05-09T05:43:04.859Z,96.58
2024-05-09T05:44:04.913Z,95.76
2024-05-09T05:45:06.778Z,95.25
2024-05-09T05:46:04.905Z,94.43
2024-05-09T05:47:04.938Z,94.64
2024-05-09T05:48:05.768Z,93.92
2024-05-09T05:49:05.086Z,95.05
2024-05-09T05:51:05.070Z,95.51
2024-05-09T05:52:05.100Z,96.23
2024-05-09T05:53:05.078Z,96.74
2024-05-09T05:54:05.040Z,96.64
2024-05-09T05:55:05.071Z,95.72
2024-05-09T05:56:05.176Z,95.78
2024-05-09T05:57:05.088Z,95.67
2024-05-09T05:58:05.142Z,95.78
2024-05-09T05:59:05.182Z,95.47
2024-05-09T06:00:09.424Z,95.37
2024-05-09T06:01:05.207Z,94.81
2024-05-09T06:02:05.354Z,94.81
2024-05-09T06:03:05.700Z,94.51
2024-05-09T06:04:05.343Z,94.20
2024-05-09T06:05:05.283Z,94.71
2024-05-09T06:06:05.426Z,94.26
2024-05-09T06:07:05.281Z,94.46
2024-05-09T06:08:05.337Z,94.67
2024-05-09T06:09:05.327Z,92.72
2024-05-09T06:10:09.311Z,93.33
2024-05-09T06:11:05.416Z,93.50
2024-05-09T06:12:05.439Z,92.01
2024-05-09T06:13:05.397Z,92.37
2024-05-09T06:14:05.475Z,92.68
2024-05-09T06:15:05.419Z,92.07
2024-05-09T06:16:05.449Z,91.96
2024-05-09T06:17:05.548Z,91.66
2024-05-09T06:18:05.886Z,91.82
2024-05-09T06:19:05.680Z,91.00
2024-05-09T06:21:05.563Z,91.31
2024-05-09T06:22:05.551Z,90.39
2024-05-09T06:23:05.799Z,89.32
2024-05-09T06:24:06.796Z,88.55
2024-05-09T06:25:05.619Z,88.61
2024-05-09T06:26:05.699Z,89.02
2024-05-09T06:27:05.681Z,88.10
2024-05-09T06:28:05.688Z,89.12
2024-05-09T06:29:05.699Z,89.12
2024-05-09T06:30:08.209Z,89.18
2024-05-09T06:31:05.736Z,90.00
2024-05-09T06:32:05.932Z,89.79
2024-05-09T06:33:06.284Z,89.59
2024-05-09T06:34:05.864Z,87.96
2024-05-09T06:35:05.887Z,88.57
2024-05-09T06:36:05.827Z,88.06
2024-05-09T06:37:05.847Z,87.10
2024-05-09T06:38:05.853Z,87.30
2024-05-09T06:39:05.882Z,87.82
2024-05-09T06:40:07.474Z,87.71
2024-05-09T06:41:05.966Z,85.88
2024-05-09T06:42:05.938Z,87.10
2024-05-09T06:43:05.969Z,87.30
2024-05-09T06:44:05.970Z,87.10
2024-05-09T06:45:05.990Z,85.88
2024-05-09T06:46:06.012Z,85.88
2024-05-09T06:47:06.203Z,85.47
2024-05-09T06:48:06.099Z,84.45
2024-05-09T06:49:06.170Z,83.33
2024-05-09T06:50:10.537Z,83.29
2024-05-09T06:51:06.141Z,82.23
2024-05-09T06:52:06.141Z,82.07
2024-05-09T06:53:06.346Z,83.29
2024-05-09T06:54:06.164Z,82.68
2024-05-09T06:55:06.209Z,82.98
2024-05-09T06:56:06.232Z,82.88
2024-05-09T06:57:06.302Z,81.76
2024-05-09T06:58:06.370Z,83.04
2024-05-09T06:59:06.321Z,82.84
2024-05-09T07:01:06.345Z,82.40
2024-05-09T07:02:06.409Z,81.68
2024-05-09T07:03:06.454Z,81.99
2024-05-09T07:04:06.536Z,82.97
2024-05-09T07:05:06.503Z,81.95
2024-05-09T07:06:06.570Z,81.85
2024-05-09T07:07:06.490Z,81.65
2024-05-09T07:08:06.498Z,83.07
2024-05-09T07:09:06.471Z,82.97
2024-05-09T07:10:10.002Z,82.87
2024-05-09T07:11:06.577Z,82.42
2024-05-09T07:12:06.634Z,83.23
2024-05-09T07:13:06.546Z,83.37
2024-05-09T07:14:06.588Z,79.77
2024-05-09T07:15:06.592Z,79.68
2024-05-09T07:16:06.614Z,80.69
2024-05-09T07:17:06.810Z,79.06
2024-05-09T07:18:06.853Z,80.18
2024-05-09T07:19:06.846Z,79.81
2024-05-09T07:20:09.011Z,79.57
2024-05-09T07:21:06.757Z,80.38
2024-05-09T07:22:06.714Z,80.99
2024-05-09T07:23:06.782Z,78.25
2024-05-09T07:24:06.763Z,77.20
2024-05-09T07:25:06.781Z,77.81
2024-05-09T07:26:06.837Z,77.77
2024-05-09T07:27:06.861Z,77.97
2024-05-09T07:28:06.837Z,77.77
2024-05-09T07:29:06.935Z,77.97
2024-05-09T07:30:07.424Z,77.26
2024-05-09T07:31:06.898Z,78.08
2024-05-09T07:32:06.926Z,78.58
2024-05-09T07:33:07.078Z,80.11
2024-05-09T07:34:07.016Z,78.95
2024-05-09T07:35:07.042Z,79.25
2024-05-09T07:36:07.010Z,79.93
2024-05-09T07:37:07.058Z,80.24
2024-05-09T07:38:07.082Z,80.13
2024-05-09T07:39:07.061Z,80.24
2024-05-09T07:40:07.707Z,80.64
2024-05-09T07:41:07.213Z,77.59
2024-05-09T07:42:07.131Z,78.67
2024-05-09T07:43:07.163Z,77.05
2024-05-09T07:44:07.474Z,78.27
2024-05-09T07:45:21.382Z,78.98
2024-05-09T07:47:03.835Z,78.47
2024-05-09T07:48:14.583Z,78.57
2024-05-09T07:53:36.682Z,77.69
2024-05-09T07:54:07.897Z,77.69
2024-05-09T07:55:07.518Z,74.24
2024-05-09T07:56:07.927Z,74.04
2024-05-09T07:57:07.488Z,76.87
2024-05-09T07:58:07.507Z,76.27
2024-05-09T07:59:07.500Z,75.35
2024-05-09T08:00:08.268Z,73.43
2024-05-09T08:01:07.640Z,72.41
2024-05-09T08:02:07.727Z,70.59
2024-05-09T08:03:07.587Z,69.47
2024-05-09T08:04:07.676Z,66.94
2024-05-09T08:05:07.884Z,63.56
2024-05-09T08:06:07.644Z,64.85
2024-05-09T08:07:07.766Z,64.75
2024-05-09T08:08:07.692Z,64.34
2024-05-09T08:09:11.157Z,63.83
2024-05-09T08:10:10.680Z,63.02
2024-05-09T08:11:07.807Z,63.90
2024-05-09T08:12:07.771Z,63.20
2024-05-09T08:13:07.926Z,63.60
2024-05-09T08:14:07.825Z,62.08
2024-05-09T08:15:07.847Z,61.68
2024-05-09T08:16:07.884Z,61.68
2024-05-09T08:17:07.941Z,64.24
2024-05-09T08:18:07.975Z,65.83
2024-05-09T08:19:07.971Z,64.01
2024-05-09T08:20:08.629Z,63.09
2024-05-09T08:21:07.981Z,64.38
2024-05-09T08:22:08.021Z,64.07
2024-05-09T08:23:08.021Z,65.50
2024-05-09T08:24:08.059Z,64.15
2024-05-09T08:25:09.718Z,60.43
2024-05-09T08:26:08.101Z,57.29
2024-05-09T08:27:08.134Z,59.22
2024-05-09T08:28:08.175Z,59.22
2024-05-09T08:29:08.166Z,55.95
2024-05-09T08:30:15.255Z,60.00
2024-05-09T08:31:08.266Z,57.37
2024-05-09T08:32:08.244Z,58.76
2024-05-09T08:33:08.397Z,56.73
2024-05-09T08:34:08.527Z,55.93
2024-05-09T08:35:08.289Z,56.02
2024-05-09T08:36:08.326Z,57.14
2024-05-09T08:37:13.209Z,57.95
2024-05-09T08:38:08.460Z,58.45
2024-05-09T08:39:08.389Z,58.65
2024-05-09T08:40:11.160Z,55.22
2024-05-09T08:41:08.451Z,55.09
2024-05-09T08:42:08.447Z,54.89
2024-05-09T08:43:09.476Z,53.78
2024-05-09T08:44:08.498Z,56.20
2024-05-09T08:45:08.519Z,54.86
2024-05-09T08:46:08.608Z,56.65
2024-05-09T08:47:08.651Z,55.94
2024-05-09T08:48:09.066Z,53.63
2024-05-09T08:49:08.730Z,54.53
2024-05-09T08:50:13.691Z,54.94
2024-05-09T08:51:08.660Z,55.14
2024-05-09T08:52:08.701Z,56.35
2024-05-09T08:53:09.104Z,55.82
2024-05-09T08:54:08.729Z,58.25
2024-05-09T08:55:08.893Z,56.45
2024-05-09T08:56:08.785Z,57.74
2024-05-09T08:57:08.800Z,55.52
2024-05-09T08:58:09.006Z,56.93
2024-05-09T08:59:08.854Z,58.65
2024-05-09T09:00:12.808Z,55.04
2024-05-09T09:01:09.018Z,54.94
2024-05-09T09:02:09.021Z,58.85
2024-05-09T09:03:09.291Z,56.70
2024-05-09T09:04:09.091Z,56.70
2024-05-09T09:05:09.224Z,58.12
2024-05-09T09:06:09.133Z,57.68
2024-05-09T09:07:09.140Z,56.48
2024-05-09T09:08:09.165Z,53.45
2024-05-09T09:09:09.102Z,53.75
2024-05-09T09:10:12.868Z,55.57
2024-05-09T09:11:09.169Z,58.49
2024-05-09T09:12:10.617Z,59.07
2024-05-09T09:13:09.739Z,55.21
2024-05-09T09:14:09.239Z,54.71
2024-05-09T09:15:09.261Z,56.70
2024-05-09T09:16:09.388Z,54.58
2024-05-09T09:17:09.415Z,56.02
2024-05-09T09:18:11.703Z,56.60
2024-05-09T09:19:09.479Z,56.67
2024-05-09T09:20:14.328Z,55.71
2024-05-09T09:21:09.417Z,55.34
2024-05-09T09:22:09.508Z,55.14
2024-05-09T09:23:09.467Z,57.12
2024-05-09T09:24:10.081Z,53.90
2024-05-09T09:25:09.718Z,55.01
2024-05-09T09:26:09.617Z,54.68
2024-05-09T09:27:09.595Z,55.11
2024-05-09T09:28:09.934Z,55.14
2024-05-09T09:29:09.640Z,54.76
2024-05-09T09:30:22.912Z,56.77
2024-05-09T09:31:09.725Z,58.19
2024-05-09T09:32:09.726Z,54.76
2024-05-09T09:33:10.038Z,56.77
2024-05-09T09:34:09.968Z,54.66
2024-05-09T09:35:09.799Z,55.26
2024-05-09T09:36:11.611Z,53.12
2024-05-09T09:37:10.010Z,52.89
2024-05-09T09:38:10.436Z,52.49
2024-05-09T09:39:09.910Z,51.61
2024-05-09T09:40:12.911Z,53.22
2024-05-09T09:41:10.004Z,53.12
2024-05-09T09:42:11.077Z,53.52
2024-05-09T09:43:10.189Z,52.89
2024-05-09T09:44:10.233Z,55.01
2024-05-09T09:45:10.109Z,55.56
2024-05-09T09:46:12.996Z,54.93
2024-05-09T09:47:10.307Z,54.40
2024-05-09T09:48:10.380Z,53.37
2024-05-09T09:49:10.313Z,52.44
2024-05-09T09:50:14.468Z,52.01
2024-05-09T09:51:10.365Z,53.32
2024-05-09T09:52:11.400Z,54.96
2024-05-09T09:53:10.509Z,53.97
2024-05-09T09:54:10.389Z,52.84
2024-05-09T09:55:10.485Z,54.48
2024-05-09T09:56:10.631Z,50.35
2024-05-09T09:57:10.427Z,52.89
2024-05-09T09:58:13.424Z,52.87
2024-05-09T09:59:10.502Z,53.27
2024-05-09T10:00:11.968Z,53.17
2024-05-09T10:01:10.640Z,52.87
2024-05-09T10:02:10.796Z,51.66
2024-05-09T10:03:10.674Z,51.79
2024-05-09T10:04:10.716Z,53.02
2024-05-09T10:05:10.852Z,52.26
2024-05-09T10:06:10.697Z,52.14
2024-05-09T10:07:10.771Z,52.04
2024-05-09T10:08:10.759Z,50.91
2024-05-09T10:09:10.816Z,50.89
2024-05-09T10:10:14.009Z,51.46
2024-05-09T10:11:11.011Z,51.91
2024-05-09T10:12:11.061Z,52.26
2024-05-09T10:13:10.953Z,53.34
2024-05-09T10:14:10.946Z,52.29
2024-05-09T10:15:10.971Z,49.40
2024-05-09T10:16:11.291Z,48.55
2024-05-09T10:17:11.064Z,51.29
2024-05-09T10:18:11.342Z,48.27
2024-05-09T10:19:11.146Z,49.22
2024-05-09T10:20:18.363Z,50.91
2024-05-09T10:21:11.146Z,52.24
2024-05-09T10:22:11.210Z,51.43
2024-05-09T10:23:11.211Z,50.85
2024-05-09T10:24:11.255Z,51.46
2024-05-09T10:25:11.314Z,52.19
2024-05-09T10:26:11.316Z,54.83
2024-05-09T10:27:11.323Z,53.92
2024-05-09T10:28:11.412Z,52.49
2024-05-09T10:29:11.390Z,53.52
2024-05-09T10:30:14.816Z,54.53
2024-05-09T10:31:11.759Z,55.26
2024-05-09T10:32:11.474Z,52.62
2024-05-09T10:33:11.584Z,55.14
2024-05-09T10:34:11.713Z,55.21
2024-05-09T10:35:11.618Z,54.28
2024-05-09T10:36:11.570Z,56.57
2024-05-09T10:37:11.761Z,53.55
2024-05-09T10:38:11.632Z,51.76
2024-05-09T10:39:11.651Z,51.66
2024-05-09T10:40:17.368Z,51.76
2024-05-09T10:41:11.704Z,53.95
2024-05-09T10:42:11.740Z,53.25
2024-05-09T10:43:11.836Z,54.15
2024-05-09T10:44:11.784Z,52.62
2024-05-09T10:45:11.807Z,51.43
2024-05-09T10:46:12.170Z,52.01
2024-05-09T10:47:11.909Z,50.65
2024-05-09T10:48:11.989Z,52.67
2024-05-09T10:49:12.035Z,51.56
2024-05-09T10:50:21.999Z,52.37
2024-05-09T10:51:12.075Z,52.17
2024-05-09T10:52:12.037Z,54.88
2024-05-09T10:53:12.015Z,52.24
2024-05-09T10:54:12.047Z,53.25
2024-05-09T10:55:12.128Z,52.14
2024-05-09T10:56:12.097Z,53.55
2024-05-09T10:57:12.130Z,53.55
2024-05-09T10:58:12.633Z,53.45
2024-05-09T10:59:12.176Z,53.47
2024-05-09T11:00:19.024Z,54.28
2024-05-09T11:01:12.340Z,53.38
2024-05-09T11:02:12.520Z,53.98
2024-05-09T11:03:12.374Z,50.45
2024-05-09T11:04:12.423Z,50.88
2024-05-09T11:05:12.512Z,50.48
2024-05-09T11:06:12.354Z,52.67
2024-05-09T11:07:12.446Z,50.96
2024-05-09T11:08:12.401Z,50.63
2024-05-09T11:09:12.431Z,51.43
2024-05-09T11:10:14.664Z,52.44
2024-05-09T11:11:12.511Z,53.02
2024-05-09T11:12:12.650Z,56.44
2024-05-09T11:13:12.614Z,54.73
2024-05-09T11:14:12.597Z,55.46
2024-05-09T11:15:12.580Z,54.55
2024-05-09T11:16:12.698Z,54.75
2024-05-09T11:17:12.690Z,55.36
2024-05-09T11:18:12.715Z,55.66
2024-05-09T11:19:12.846Z,54.43
2024-05-09T11:20:17.144Z,54.55
2024-05-09T11:21:13.411Z,53.47
2024-05-09T11:22:12.813Z,54.48
2024-05-09T11:23:12.781Z,56.42
2024-05-09T11:24:12.823Z,53.70
2024-05-09T11:25:12.888Z,55.31
2024-05-09T11:26:12.858Z,55.01
2024-05-09T11:27:12.892Z,55.11
2024-05-09T11:28:13.017Z,55.71
2024-05-09T11:29:15.054Z,55.82
2024-05-09T11:30:20.841Z,56.60
2024-05-09T11:31:13.045Z,56.49
2024-05-09T11:32:13.063Z,55.66
2024-05-09T11:33:13.062Z,54.63
2024-05-09T11:34:13.115Z,54.30
2024-05-09T11:35:13.095Z,54.60
2024-05-09T11:36:13.115Z,54.40
2024-05-09T11:37:13.308Z,54.00
2024-05-09T11:38:13.168Z,52.80
2024-05-09T11:39:13.180Z,54.48
2024-05-09T11:40:21.128Z,53.97
2024-05-09T11:41:13.245Z,54.88
2024-05-09T11:42:13.268Z,55.88
2024-05-09T11:43:13.327Z,53.25
2024-05-09T11:44:13.352Z,51.94
2024-05-09T11:45:13.358Z,53.85
2024-05-09T11:46:13.631Z,52.17
2024-05-09T11:47:13.393Z,51.86
2024-05-09T11:48:13.501Z,53.37
2024-05-09T11:49:13.626Z,48.57
2024-05-09T11:50:22.349Z,50.40
2024-05-09T11:51:13.502Z,52.49
2024-05-09T11:52:13.586Z,51.89
2024-05-09T11:53:13.559Z,52.47
2024-05-09T11:54:13.565Z,54.15
2024-05-09T11:55:13.754Z,52.34
2024-05-09T11:56:13.634Z,50.93
2024-05-09T11:57:13.645Z,51.64
2024-05-09T11:58:13.761Z,50.43
2024-05-09T11:59:13.692Z,49.85
2024-05-09T12:00:20.735Z,50.35
2024-05-09T12:01:13.795Z,50.26
2024-05-09T12:02:13.885Z,49.45
2024-05-09T12:03:13.909Z,48.35
2024-05-09T12:04:13.960Z,48.85
2024-05-09T12:05:13.962Z,48.83
2024-05-09T12:06:13.956Z,48.30
2024-05-09T12:07:14.044Z,47.47
2024-05-09T12:08:13.928Z,46.59
2024-05-09T12:09:13.946Z,44.67
2024-05-09T12:10:19.290Z,45.49
2024-05-09T12:11:14.124Z,47.72
2024-05-09T12:12:14.022Z,48.22
2024-05-09T12:13:14.100Z,51.24
2024-05-09T12:14:14.080Z,51.44
2024-05-09T12:15:14.104Z,52.24
2024-05-09T12:16:14.404Z,53.65
2024-05-09T12:17:14.195Z,54.15
2024-05-09T12:18:14.267Z,54.88
2024-05-09T12:19:14.305Z,53.85
2024-05-09T12:20:21.372Z,52.17
2024-05-09T12:21:14.272Z,52.44
2024-05-09T12:22:14.479Z,52.84
2024-05-09T12:23:14.310Z,52.62
2024-05-09T12:24:17.764Z,53.45
2024-05-09T12:25:14.477Z,53.07
2024-05-09T12:26:14.402Z,51.86
2024-05-09T12:27:14.419Z,53.07
2024-05-09T12:28:14.562Z,53.07
2024-05-09T12:29:14.504Z,52.37
2024-05-09T12:30:20.838Z,53.09
2024-05-09T12:31:14.583Z,56.09
2024-05-09T12:32:14.624Z,55.48
2024-05-09T12:33:14.684Z,56.19
2024-05-09T12:34:14.664Z,56.11
2024-05-09T12:35:14.629Z,55.58
2024-05-09T12:36:14.663Z,53.07
2024-05-09T12:37:14.789Z,53.37
2024-05-09T12:38:15.180Z,52.34
2024-05-09T12:39:14.741Z,50.73
2024-05-09T12:40:22.931Z,50.93
2024-05-09T12:41:14.814Z,51.92
2024-05-09T12:42:26.341Z,54.63
2024-05-09T12:43:14.939Z,50.29
2024-05-09T12:44:14.858Z,50.96
2024-05-09T12:45:14.981Z,51.54
2024-05-09T12:46:14.975Z,53.17
2024-05-09T12:47:15.023Z,48.78
2024-05-09T12:48:15.075Z,49.18
2024-05-09T12:49:17.239Z,49.28
2024-05-09T12:50:21.976Z,49.05
2024-05-09T12:51:15.042Z,49.23
2024-05-09T12:52:15.153Z,50.34
2024-05-09T12:53:15.115Z,52.34
2024-05-09T12:54:15.180Z,53.32
2024-05-09T12:55:15.320Z,51.42
2024-05-09T12:56:15.176Z,48.61
2024-05-09T12:57:15.198Z,47.61
2024-05-09T12:58:15.420Z,50.39
2024-05-09T12:59:15.284Z,48.19
2024-05-09T13:00:23.503Z,46.00
2024-05-09T13:01:15.366Z,47.31